Terminal Aerodrome Forecast
Issued by NWS

Home | Current Version | Previous Version | Text Only | Print | Product List | Glossary On
Versions: 1 2 3 4 5 6 7 8 9 10 11 12 13 14 15 16 17 18 19 20 21 22 23 24 25 26 27 28
000
FTUS43 KPAH 271620 AAB
TAFCGI
TAF AMD
KCGI 271620Z 2716/2812 12008KT P6SM BKN015 BKN040
     FM271800 18010G16KT P6SM VCTS BKN020CB
      TEMPO 2718/2722 2SM -TSRA BR BKN030CB
     FM280000 17008KT P6SM VCSH SCT050 BKN150=

USA.gov is the U.S. government's official web portal to all federal, state and local government web resources and services.